Time;durP1;ratioP1;P1;durP2;ratioP2;P2;SDS_P1;SDS_P2;PMS_P1;PMS_P2;Temp;Humidity;BMP_temperature;BMP_pressure;BME280_temperature;BME280_humidity;BME280_pressure;Samples;Min_cycle;Max_cycle;Signal;HPM_P1;HPM_P2
2023/08/21 00:01:20;;;;;;;6.53;4.30;;;19.90;99.90;;;;;;5031954;28;20072;-73
2023/08/21 00:03:45;;;;;;;6.82;4.80;;;19.90;99.90;;;;;;5033290;28;20515;-73
2023/08/21 00:06:11;;;;;;;5.75;4.45;;;19.80;99.90;;;;;;5033025;28;20480;-73
2023/08/21 00:08:37;;;;;;;8.38;5.00;;;19.80;99.90;;;;;;5036067;28;20035;-73
2023/08/21 00:11:02;;;;;;;7.00;4.80;;;19.80;99.90;;;;;;5037035;28;20044;-73
2023/08/21 00:13:28;;;;;;;9.00;5.15;;;19.60;99.90;;;;;;5036828;28;20029;-73
2023/08/21 00:15:55;;;;;;;6.65;4.80;;;19.50;99.90;;;;;;5035983;28;20034;-74
2023/08/21 00:18:21;;;;;;;9.82;5.00;;;19.40;99.90;;;;;;5036740;28;20026;-73
2023/08/21 00:20:47;;;;;;;7.55;5.05;;;19.30;99.90;;;;;;5036577;28;20464;-74
2023/08/21 00:23:13;;;;;;;6.70;4.55;;;19.20;99.90;;;;;;5036806;28;20083;-73
2023/08/21 00:25:38;;;;;;;5.63;4.65;;;19.10;99.90;;;;;;5036632;28;20037;-73
2023/08/21 00:28:04;;;;;;;5.10;4.50;;;19.10;99.90;;;;;;5036493;28;20030;-73
2023/08/21 00:30:30;;;;;;;5.90;4.28;;;19.10;99.90;;;;;;5035184;28;20033;-73
2023/08/21 00:32:56;;;;;;;7.35;4.45;;;19.10;99.90;;;;;;5036955;28;20033;-73
2023/08/21 00:35:21;;;;;;;7.53;4.30;;;19.10;99.90;;;;;;5037233;28;20043;-73
2023/08/21 00:37:47;;;;;;;5.30;4.38;;;19.10;99.90;;;;;;5036475;28;20022;-73
2023/08/21 00:40:13;;;;;;;5.65;4.75;;;19.10;99.90;;;;;;5036542;28;20025;-73
2023/08/21 00:42:39;;;;;;;6.50;4.85;;;19.10;99.90;;;;;;5036365;28;20072;-73
2023/08/21 00:45:08;;;;;;;6.25;4.20;;;19.10;99.90;;;;;;5036222;28;20021;-73
2023/08/21 00:47:34;;;;;;;6.22;4.30;;;19.00;99.90;;;;;;5036264;28;20023;-73
2023/08/21 00:50:00;;;;;;;8.70;5.07;;;19.00;99.90;;;;;;5036420;28;20057;-73
2023/08/21 00:52:26;;;;;;;5.72;4.35;;;19.00;99.90;;;;;;5036189;28;20061;-73
2023/08/21 00:54:52;;;;;;;7.47;4.55;;;18.90;99.90;;;;;;5036457;28;20030;-73
2023/08/21 00:57:18;;;;;;;6.45;4.50;;;18.90;99.90;;;;;;5035947;28;20094;-73
2023/08/21 00:59:44;;;;;;;6.22;4.85;;;18.90;99.90;;;;;;5035893;28;20028;-73
2023/08/21 01:02:10;;;;;;;7.45;5.07;;;18.90;99.90;;;;;;5035720;28;20076;-73
2023/08/21 01:04:37;;;;;;;7.70;5.30;;;18.90;99.90;;;;;;5034456;28;20420;-73
2023/08/21 01:07:09;;;;;;;6.68;4.90;;;18.80;99.90;;;;;;5034737;28;20025;-73
2023/08/21 01:09:45;;;;;;;8.30;5.13;;;18.80;99.90;;;;;;5035548;28;20036;-73
2023/08/21 01:12:34;;;;;;;6.05;4.78;;;18.70;99.90;;;;;;5034432;28;20472;-73
2023/08/21 01:15:07;;;;;;;6.68;4.85;;;18.60;99.90;;;;;;5033640;28;20036;-73
2023/08/21 01:17:44;;;;;;;9.75;4.95;;;18.60;99.90;;;;;;5035335;28;20032;-73
2023/08/21 01:20:11;;;;;;;7.57;5.00;;;18.60;99.90;;;;;;5035133;28;20025;-73
2023/08/21 01:22:39;;;;;;;7.75;5.00;;;18.60;99.90;;;;;;5035387;28;20105;-73
2023/08/21 01:25:06;;;;;;;7.63;4.10;;;18.50;99.90;;;;;;5035306;28;20030;-73
2023/08/21 01:27:32;;;;;;;6.45;4.80;;;18.50;99.90;;;;;;5034150;28;20029;-73
2023/08/21 01:29:59;;;;;;;7.97;5.22;;;18.50;99.90;;;;;;5034138;28;20025;-73
2023/08/21 01:32:53;;;;;;;6.80;5.05;;;18.50;99.90;;;;;;5033884;28;20029;-73
2023/08/21 01:35:20;;;;;;;8.50;5.03;;;18.50;99.90;;;;;;5034689;28;20112;-73
2023/08/21 01:37:46;;;;;;;6.80;4.63;;;18.50;99.90;;;;;;5034968;28;20022;-73
2023/08/21 01:40:19;;;;;;;7.15;5.07;;;18.40;99.90;;;;;;5034120;28;20018;-73
2023/08/21 01:42:45;;;;;;;5.28;4.47;;;18.40;99.90;;;;;;5034127;28;20144;-73
2023/08/21 01:45:10;;;;;;;8.73;5.40;;;18.40;99.90;;;;;;5034485;28;20543;-73
2023/08/21 01:47:36;;;;;;;6.47;4.72;;;18.40;99.90;;;;;;5034312;28;20025;-73
2023/08/21 01:50:02;;;;;;;6.22;4.63;;;18.30;99.90;;;;;;5034224;28;20037;-73
2023/08/21 01:52:27;;;;;;;8.85;5.13;;;18.30;99.90;;;;;;5035166;28;20032;-73
2023/08/21 01:54:53;;;;;;;6.93;5.05;;;18.20;99.90;;;;;;5034915;28;20476;-73
2023/08/21 01:57:19;;;;;;;5.40;4.13;;;18.20;99.90;;;;;;5034734;28;20033;-73
2023/08/21 01:59:44;;;;;;;6.53;4.10;;;18.20;99.90;;;;;;5034756;28;20025;-73
2023/08/21 02:02:10;;;;;;;6.07;4.72;;;18.20;99.90;;;;;;5034832;28;20091;-73
2023/08/21 02:04:36;;;;;;;6.03;4.70;;;18.20;99.90;;;;;;5034623;28;20061;-73
2023/08/21 02:07:01;;;;;;;7.25;4.70;;;18.20;99.90;;;;;;5033392;28;20034;-73
2023/08/21 02:09:27;;;;;;;6.63;5.07;;;18.10;99.90;;;;;;5033324;28;20036;-73
2023/08/21 02:11:53;;;;;;;11.40;5.40;;;18.10;99.90;;;;;;5034598;28;20033;-73
2023/08/21 02:14:18;;;;;;;6.95;6.03;;;18.00;99.90;;;;;;5034554;28;20029;-73
2023/08/21 02:16:44;;;;;;;7.60;4.88;;;18.00;99.90;;;;;;5034616;28;20121;-73
2023/08/21 02:19:09;;;;;;;7.53;4.90;;;18.00;99.90;;;;;;5034388;28;20021;-73
2023/08/21 02:21:36;;;;;;;8.48;4.85;;;17.90;99.90;;;;;;5034383;28;20032;-73
2023/08/21 02:24:02;;;;;;;6.50;4.68;;;17.80;99.90;;;;;;5034403;28;20033;-73
2023/08/21 02:26:27;;;;;;;6.32;4.68;;;17.80;99.90;;;;;;5034495;28;20387;-73
2023/08/21 02:28:53;;;;;;;8.60;4.88;;;17.70;99.90;;;;;;5034163;28;20084;-73
2023/08/21 02:31:19;;;;;;;11.45;6.38;;;17.70;99.90;;;;;;5033971;28;20056;-73
2023/08/21 02:33:45;;;;;;;7.53;5.72;;;17.70;99.90;;;;;;5034280;28;20479;-73
2023/08/21 02:36:10;;;;;;;7.18;5.13;;;17.70;99.90;;;;;;5034010;28;20427;-73
2023/08/21 02:38:36;;;;;;;6.93;4.30;;;17.60;99.90;;;;;;5034348;28;20026;-73
2023/08/21 02:41:02;;;;;;;7.75;4.50;;;17.60;99.90;;;;;;5033921;28;20033;-73
2023/08/21 02:43:27;;;;;;;8.23;5.10;;;17.50;99.90;;;;;;5034228;28;20156;-73
2023/08/21 02:45:53;;;;;;;6.30;4.95;;;17.50;99.90;;;;;;5034201;28;20124;-72
2023/08/21 02:48:18;;;;;;;7.53;4.60;;;17.40;99.90;;;;;;5033834;28;20108;-73
2023/08/21 02:50:44;;;;;;;8.02;5.25;;;17.30;99.90;;;;;;5033710;28;20044;-73
2023/08/21 02:53:10;;;;;;;6.05;4.60;;;17.30;99.90;;;;;;5033780;28;20026;-72
2023/08/21 02:55:36;;;;;;;6.80;4.82;;;17.20;99.90;;;;;;5034020;28;20037;-72
2023/08/21 02:58:01;;;;;;;6.70;5.03;;;17.10;99.90;;;;;;5032453;28;20484;-73
2023/08/21 03:00:27;;;;;;;8.18;5.40;;;17.10;99.90;;;;;;5033644;28;20460;-73
2023/08/21 03:02:53;;;;;;;6.20;4.78;;;17.10;99.90;;;;;;5033621;28;20037;-72
2023/08/21 03:05:18;;;;;;;6.63;4.53;;;17.10;99.90;;;;;;5033595;28;20052;-73
2023/08/21 03:07:44;;;;;;;6.18;4.57;;;17.10;99.90;;;;;;5033813;28;20029;-73
2023/08/21 03:10:10;;;;;;;6.40;4.60;;;17.10;99.90;;;;;;5033542;28;20037;-73
2023/08/21 03:12:36;;;;;;;7.32;4.68;;;17.10;99.90;;;;;;5032375;28;20546;-73
2023/08/21 03:15:02;;;;;;;7.60;4.70;;;17.10;99.90;;;;;;5033453;28;20041;-72
2023/08/21 03:17:27;;;;;;;7.07;4.63;;;17.10;99.90;;;;;;5033462;28;20543;-73
2023/08/21 03:19:53;;;;;;;6.53;4.47;;;17.00;99.90;;;;;;5033672;28;20049;-73
2023/08/21 03:22:18;;;;;;;6.50;4.78;;;17.00;99.90;;;;;;5032426;28;20021;-73
2023/08/21 03:24:44;;;;;;;7.45;4.35;;;17.00;99.90;;;;;;5033339;28;20029;-73
2023/08/21 03:27:10;;;;;;;6.25;4.53;;;17.00;99.90;;;;;;5033888;28;20034;-73
2023/08/21 03:29:35;;;;;;;6.40;4.45;;;17.00;99.90;;;;;;5033509;28;20037;-73
2023/08/21 03:32:01;;;;;;;7.38;4.20;;;16.90;99.90;;;;;;5033394;28;20029;-73
2023/08/21 03:34:27;;;;;;;7.45;4.95;;;16.90;99.90;;;;;;5033531;28;20040;-73
2023/08/21 03:36:52;;;;;;;7.10;4.50;;;16.90;99.90;;;;;;5034024;28;20061;-73
2023/08/21 03:39:18;;;;;;;6.38;4.80;;;16.70;99.90;;;;;;5033570;28;20025;-73
2023/08/21 03:41:43;;;;;;;8.80;4.75;;;16.70;99.90;;;;;;5033691;28;20025;-73
2023/08/21 03:44:09;;;;;;;6.57;5.50;;;16.70;99.90;;;;;;5035973;28;20072;-73
2023/08/21 03:46:35;;;;;;;9.77;5.60;;;16.70;99.90;;;;;;5037535;28;20033;-73
2023/08/21 03:49:00;;;;;;;8.35;5.68;;;16.70;99.90;;;;;;5037540;28;20033;-73
2023/08/21 03:51:26;;;;;;;7.05;5.00;;;16.70;99.90;;;;;;5037051;28;20034;-73
2023/08/21 03:53:52;;;;;;;6.78;5.00;;;16.70;99.90;;;;;;5037154;28;20091;-73
2023/08/21 03:56:18;;;;;;;7.30;5.25;;;16.60;99.90;;;;;;5037048;28;20044;-73
2023/08/21 03:58:44;;;;;;;8.45;4.72;;;16.50;99.90;;;;;;5037068;28;20503;-73
2023/08/21 04:01:10;;;;;;;8.25;4.70;;;16.50;99.90;;;;;;5036988;28;20033;-73
2023/08/21 04:03:35;;;;;;;6.43;4.90;;;16.50;99.90;;;;;;5037475;28;20079;-73
2023/08/21 04:06:01;;;;;;;8.00;5.32;;;16.50;99.90;;;;;;5037534;28;20621;-73
2023/08/21 04:08:27;;;;;;;6.68;5.10;;;16.50;99.90;;;;;;5036942;28;20030;-73
2023/08/21 04:10:53;;;;;;;7.20;5.43;;;16.50;99.90;;;;;;5036822;28;20514;-73
2023/08/21 04:13:19;;;;;;;6.80;4.68;;;16.40;99.90;;;;;;5037118;28;20036;-72
2023/08/21 04:15:49;;;;;;;7.00;5.22;;;16.40;99.90;;;;;;5036689;28;20037;-73
2023/08/21 04:18:15;;;;;;;7.70;5.10;;;16.40;99.90;;;;;;5036948;28;20099;-72
2023/08/21 04:20:41;;;;;;;8.10;5.32;;;16.40;99.90;;;;;;5036826;28;20034;-72
2023/08/21 04:23:06;;;;;;;6.90;4.47;;;16.40;99.90;;;;;;5036735;28;20025;-72
2023/08/21 04:25:32;;;;;;;7.00;5.03;;;16.40;99.90;;;;;;5035768;28;20033;-72
2023/08/21 04:27:58;;;;;;;7.65;4.47;;;16.30;99.90;;;;;;5035521;28;20036;-72
2023/08/21 04:30:23;;;;;;;7.90;4.95;;;16.30;99.90;;;;;;5036544;28;20061;-72
2023/08/21 04:32:49;;;;;;;8.65;5.25;;;16.30;99.90;;;;;;5036472;28;20534;-72
2023/08/21 04:35:15;;;;;;;6.10;4.57;;;16.30;99.90;;;;;;5035552;28;20474;-73
2023/08/21 04:37:46;;;;;;;7.00;4.75;;;16.30;99.90;;;;;;5035769;28;20511;-73
2023/08/21 04:40:11;;;;;;;;;;;16.30;99.90;;;;;;5036870;28;20025;-73
2023/08/21 04:42:37;;;;;;;6.93;4.68;;;16.30;99.90;;;;;;5036378;28;20414;-72
2023/08/21 04:45:04;;;;;;;9.02;5.97;;;16.30;99.90;;;;;;5036821;28;20021;-73
2023/08/21 04:47:30;;;;;;;9.15;5.68;;;16.20;99.90;;;;;;5036862;28;20498;-72
2023/08/21 04:49:56;;;;;;;9.38;5.47;;;16.20;99.90;;;;;;5036443;28;20037;-72
2023/08/21 04:52:22;;;;;;;6.95;5.00;;;16.20;99.90;;;;;;5036516;28;20186;-72
2023/08/21 04:54:48;;;;;;;7.63;5.25;;;16.10;99.90;;;;;;5034442;28;20039;-72
2023/08/21 04:57:15;;;;;;;9.13;5.85;;;16.10;99.90;;;;;;5036063;28;20118;-72
2023/08/21 04:59:40;;;;;;;8.10;5.32;;;16.10;99.90;;;;;;5035886;28;20033;-72
2023/08/21 05:02:06;;;;;;;7.22;5.07;;;16.10;99.90;;;;;;5034767;28;20022;-72
2023/08/21 05:04:33;;;;;;;7.57;5.10;;;16.10;99.90;;;;;;5035912;28;20124;-72
2023/08/21 05:06:58;;;;;;;12.43;5.68;;;16.10;99.90;;;;;;5035793;28;20029;-72
2023/08/21 05:09:24;;;;;;;6.47;4.60;;;16.10;99.90;;;;;;5035563;28;20036;-73
2023/08/21 05:11:50;;;;;;;8.32;5.13;;;16.10;99.90;;;;;;5035618;28;20034;-72
2023/08/21 05:14:15;;;;;;;5.68;4.60;;;16.10;99.90;;;;;;5036110;28;20040;-72
2023/08/21 05:16:41;;;;;;;6.45;4.53;;;16.10;99.90;;;;;;5035459;28;20084;-72
2023/08/21 05:19:07;;;;;;;6.75;4.93;;;16.10;99.90;;;;;;5035531;28;20025;-72
2023/08/21 05:21:33;;;;;;;8.60;5.20;;;16.10;99.90;;;;;;5035556;28;20028;-72
2023/08/21 05:23:58;;;;;;;7.32;4.55;;;16.10;99.90;;;;;;5035524;28;20030;-72
2023/08/21 05:26:24;;;;;;;7.90;5.28;;;16.10;99.90;;;;;;5035428;28;20033;-73
2023/08/21 05:28:50;;;;;;;9.18;5.20;;;16.20;99.90;;;;;;5034697;28;20591;-73
2023/08/21 05:31:15;;;;;;;6.55;5.10;;;16.20;99.90;;;;;;5035317;28;20033;-72
2023/08/21 05:33:41;;;;;;;10.90;6.05;;;16.30;99.90;;;;;;5035244;28;20030;-72
2023/08/21 05:36:06;;;;;;;9.13;6.05;;;16.30;99.90;;;;;;5035137;28;20115;-72
2023/08/21 05:38:32;;;;;;;9.10;5.20;;;16.30;99.90;;;;;;5035211;28;20068;-72
2023/08/21 05:40:58;;;;;;;9.52;5.05;;;16.40;99.90;;;;;;5034918;28;20072;-73
2023/08/21 05:43:24;;;;;;;9.02;5.85;;;16.40;99.90;;;;;;5035269;28;20029;-72
2023/08/21 05:45:50;;;;;;;8.02;5.28;;;16.50;99.90;;;;;;5035105;28;20053;-72
2023/08/21 05:48:17;;;;;;;8.05;5.22;;;16.50;99.90;;;;;;5034063;28;20076;-72
2023/08/21 05:50:43;;;;;;;8.13;5.10;;;16.60;99.90;;;;;;5033473;28;20464;-72
2023/08/21 05:53:09;;;;;;;9.32;5.07;;;16.60;99.90;;;;;;5035273;28;20100;-72
2023/08/21 05:55:37;;;;;;;7.07;4.70;;;16.60;99.90;;;;;;5034857;28;20546;-72
2023/08/21 05:58:03;;;;;;;6.15;4.93;;;16.70;99.90;;;;;;5034844;28;20048;-72
2023/08/21 06:00:28;;;;;;;10.10;5.32;;;16.70;99.90;;;;;;5034773;28;20438;-72
2023/08/21 06:02:54;;;;;;;5.60;4.80;;;16.80;99.90;;;;;;5034838;28;20030;-72
2023/08/21 06:05:20;;;;;;;9.52;5.32;;;16.80;99.90;;;;;;5033800;28;20021;-72
2023/08/21 06:07:46;;;;;;;8.02;5.15;;;16.90;99.90;;;;;;5034699;28;20043;-72
2023/08/21 06:10:12;;;;;;;9.75;4.90;;;16.90;99.90;;;;;;5034604;28;20045;-72
2023/08/21 06:12:39;;;;;;;9.80;4.78;;;17.00;99.90;;;;;;5034599;28;20033;-72
2023/08/21 06:15:07;;;;;;;8.30;4.43;;;17.00;99.90;;;;;;5034806;28;20025;-72
2023/08/21 06:17:33;;;;;;;7.70;4.43;;;17.10;99.90;;;;;;5034525;28;20033;-72
2023/08/21 06:19:59;;;;;;;7.88;5.25;;;17.20;99.90;;;;;;5034348;28;20384;-72
2023/08/21 06:22:25;;;;;;;10.40;5.35;;;17.30;99.90;;;;;;5034660;28;20053;-72
2023/08/21 06:24:50;;;;;;;8.38;4.95;;;17.30;99.90;;;;;;5034369;28;20037;-72
2023/08/21 06:27:16;;;;;;;6.68;4.80;;;17.40;99.90;;;;;;5034448;28;20028;-72
2023/08/21 06:29:42;;;;;;;8.52;5.20;;;17.40;99.90;;;;;;5032831;28;20038;-72
2023/08/21 06:32:08;;;;;;;8.80;5.05;;;17.50;99.90;;;;;;5033294;28;20064;-72
2023/08/21 06:34:33;;;;;;;8.68;5.10;;;17.60;99.90;;;;;;5040388;28;20025;-72
2023/08/21 06:36:59;;;;;;;8.60;5.28;;;17.60;99.90;;;;;;5053532;28;20029;-72
2023/08/21 06:39:25;;;;;;;8.15;4.63;;;17.70;99.90;;;;;;5053465;28;20563;-72
2023/08/21 06:41:51;;;;;;;7.55;5.30;;;17.80;99.90;;;;;;5053494;28;20044;-72
2023/08/21 06:44:17;;;;;;;7.38;4.93;;;17.80;99.90;;;;;;5053457;28;20048;-72
2023/08/21 06:46:43;;;;;;;5.93;4.28;;;17.90;99.90;;;;;;5053838;28;20033;-72
2023/08/21 06:49:09;;;;;;;11.05;5.43;;;18.00;99.90;;;;;;5053737;28;20036;-72
2023/08/21 06:51:35;;;;;;;9.65;4.78;;;18.10;99.90;;;;;;5035961;28;20120;-72
2023/08/21 06:54:00;;;;;;;9.48;4.75;;;18.20;99.90;;;;;;5053727;28;20112;-72
2023/08/21 06:56:26;;;;;;;7.68;5.38;;;18.20;99.90;;;;;;5053744;28;20506;-72
2023/08/21 06:58:52;;;;;;;7.55;5.50;;;18.30;99.90;;;;;;5053622;28;20568;-72
2023/08/21 07:01:17;;;;;;;9.05;5.50;;;18.40;99.90;;;;;;5053676;28;20028;-72
2023/08/21 07:03:43;;;;;;;8.68;5.70;;;18.50;99.90;;;;;;5053593;28;20108;-72
2023/08/21 07:06:09;;;;;;;7.45;5.68;;;18.60;99.90;;;;;;5054086;28;20379;-72
2023/08/21 07:08:34;;;;;;;8.75;5.63;;;18.70;99.90;;;;;;5053488;28;20391;-72
2023/08/21 07:11:04;;;;;;;7.45;5.72;;;18.80;99.90;;;;;;5053408;28;20061;-72
2023/08/21 07:13:30;;;;;;;8.85;5.80;;;18.90;99.90;;;;;;5053455;28;20108;-72
2023/08/21 07:15:56;;;;;;;13.00;6.60;;;19.00;99.90;;;;;;5053162;28;20025;-72
2023/08/21 07:18:21;;;;;;;9.13;6.32;;;19.10;99.90;;;;;;5053360;28;20025;-72
2023/08/21 07:20:47;;;;;;;9.82;6.45;;;19.20;99.90;;;;;;5053350;28;20064;-72
2023/08/21 07:23:13;;;;;;;9.85;6.40;;;19.30;99.90;;;;;;5053369;28;20025;-72
2023/08/21 07:25:38;;;;;;;11.57;8.38;;;19.40;99.90;;;;;;5053330;28;20123;-72
2023/08/21 07:28:04;;;;;;;10.38;8.57;;;19.60;99.90;;;;;;5053330;28;20029;-72
2023/08/21 07:30:30;;;;;;;12.70;8.45;;;19.70;99.90;;;;;;5053185;28;20087;-72
2023/08/21 07:32:55;;;;;;;12.43;8.18;;;19.80;99.90;;;;;;5053456;28;20060;-72
2023/08/21 07:35:21;;;;;;;12.38;9.13;;;19.90;99.90;;;;;;5053736;28;20029;-72
2023/08/21 07:37:47;;;;;;;10.35;7.47;;;20.00;99.90;;;;;;5053086;28;20021;-72
2023/08/21 07:40:12;;;;;;;11.10;7.88;;;20.20;99.90;;;;;;5053147;28;20033;-72
2023/08/21 07:42:38;;;;;;;11.05;8.00;;;20.20;99.90;;;;;;5053393;28;20029;-72
2023/08/21 07:45:04;;;;;;;16.05;10.77;;;20.40;99.90;;;;;;5051873;28;20479;-72
2023/08/21 07:47:30;;;;;;;11.55;9.43;;;20.40;99.90;;;;;;5051822;28;20400;-72
2023/08/21 07:49:57;;;;;;;11.23;9.35;;;20.50;99.90;;;;;;5053199;28;20558;-72
2023/08/21 07:52:23;;;;;;;12.13;8.63;;;20.60;99.90;;;;;;5053506;28;20029;-72
2023/08/21 07:54:54;;;;;;;12.77;7.50;;;20.70;99.90;;;;;;5053142;28;20048;-72
2023/08/21 07:57:20;;;;;;;9.73;7.30;;;20.90;99.90;;;;;;5050669;28;20033;-72
2023/08/21 07:59:46;;;;;;;10.52;7.28;;;21.00;99.90;;;;;;5014025;28;20157;-72
2023/08/21 08:02:12;;;;;;;11.43;7.65;;;21.10;99.90;;;;;;5013291;28;20034;-72
2023/08/21 08:04:38;;;;;;;10.02;7.50;;;21.20;99.90;;;;;;5013298;28;20022;-72
2023/08/21 08:07:04;;;;;;;14.82;7.72;;;21.30;99.90;;;;;;5013285;28;20101;-72
2023/08/21 08:09:30;;;;;;;7.97;5.93;;;21.40;99.90;;;;;;5013311;28;20026;-72
2023/08/21 08:11:56;;;;;;;10.25;8.55;;;21.60;99.90;;;;;;5013214;28;20030;-72
2023/08/21 08:14:21;;;;;;;18.50;14.50;;;21.70;99.90;;;;;;5013188;28;20030;-72
2023/08/21 08:16:47;;;;;;;17.70;13.05;;;21.90;99.90;;;;;;5013086;28;20038;-72
2023/08/21 08:19:13;;;;;;;14.27;11.50;;;22.10;99.90;;;;;;5013714;28;20022;-72
2023/08/21 08:21:38;;;;;;;13.77;10.00;;;22.20;99.90;;;;;;5014719;28;20030;-70
2023/08/21 08:24:04;;;;;;;13.00;8.68;;;22.40;99.90;;;;;;5015013;28;20025;-70
2023/08/21 08:26:30;;;;;;;13.82;9.40;;;22.60;99.90;;;;;;5014382;28;20061;-72
2023/08/21 08:28:56;;;;;;;13.13;9.77;;;22.70;99.90;;;;;;5016040;28;20504;-70
2023/08/21 08:31:23;;;;;;;12.75;9.75;;;22.90;99.90;;;;;;5017801;28;20030;-72
2023/08/21 08:33:49;;;;;;;16.42;11.35;;;23.00;99.90;;;;;;5017660;28;20562;-72
2023/08/21 08:36:15;;;;;;;12.18;8.77;;;23.20;99.90;;;;;;5017290;28;20030;-70
2023/08/21 08:38:41;;;;;;;10.98;9.07;;;23.30;99.90;;;;;;5017992;28;20030;-72
2023/08/21 08:41:14;;;;;;;10.10;8.10;;;23.40;99.90;;;;;;5016246;28;20057;-70
2023/08/21 08:43:40;;;;;;;13.32;8.48;;;23.60;99.90;;;;;;5015978;28;20026;-72
2023/08/21 08:46:08;;;;;;;11.43;8.95;;;23.80;99.90;;;;;;5016851;28;20369;-69
2023/08/21 08:48:35;;;;;;;13.18;8.50;;;23.90;99.90;;;;;;5017119;28;20081;-72
2023/08/21 08:51:03;;;;;;;11.43;7.68;;;24.00;99.90;;;;;;5016349;28;20496;-70
2023/08/21 08:53:29;;;;;;;11.02;7.57;;;24.20;99.90;;;;;;5016514;28;20424;-72
2023/08/21 08:55:56;;;;;;;9.38;7.10;;;24.30;99.90;;;;;;5016644;28;20033;-72
2023/08/21 08:58:22;;;;;;;11.25;6.97;;;24.50;99.90;;;;;;5016982;28;20026;-72
2023/08/21 09:00:48;;;;;;;10.00;6.85;;;24.60;99.90;;;;;;5016802;28;20034;-70
2023/08/21 09:03:15;;;;;;;9.45;6.18;;;24.70;99.90;;;;;;5016420;28;20034;-72
2023/08/21 09:05:41;;;;;;;9.32;6.25;;;24.80;99.90;;;;;;5016410;28;20030;-72
2023/08/21 09:08:06;;;;;;;10.38;5.80;;;25.00;99.90;;;;;;5016058;28;20030;-72
2023/08/21 09:10:32;;;;;;;7.82;6.13;;;25.00;99.60;;;;;;5015918;28;20049;-72
2023/08/21 09:13:01;;;;;;;7.63;5.97;;;25.20;99.40;;;;;;5014870;28;20038;-72
2023/08/21 09:15:30;;;;;;;9.95;6.10;;;25.30;99.90;;;;;;5016114;28;20029;-72
2023/08/21 09:17:56;;;;;;;11.68;6.57;;;25.50;99.90;;;;;;5015790;28;20033;-72
2023/08/21 09:20:22;;;;;;;8.40;6.28;;;25.70;99.90;;;;;;5015126;28;20040;-72
2023/08/21 09:22:56;;;;;;;7.28;6.10;;;25.80;99.90;;;;;;5015775;28;20553;-72
2023/08/21 09:25:25;;;;;;;7.72;5.82;;;26.00;99.10;;;;;;5015770;28;20033;-72
2023/08/21 09:27:53;;;;;;;9.15;6.53;;;26.10;98.70;;;;;;5015994;28;20025;-69
2023/08/21 09:30:19;;;;;;;11.13;6.03;;;26.20;98.30;;;;;;5015611;28;20022;-72
2023/08/21 09:33:00;;;;;;;8.85;6.25;;;26.30;97.60;;;;;;5016081;28;20084;-72
2023/08/21 09:35:26;;;;;;;8.43;5.55;;;26.30;97.60;;;;;;5015503;28;20026;-72
2023/08/21 09:37:53;;;;;;;9.27;5.90;;;26.40;97.50;;;;;;5014206;28;20049;-72
2023/08/21 09:40:21;;;;;;;8.13;5.53;;;26.50;96.20;;;;;;5015462;28;20547;-72
2023/08/21 09:42:55;;;;;;;7.35;5.65;;;26.60;96.30;;;;;;5015389;28;20022;-72
2023/08/21 09:45:22;;;;;;;6.55;5.10;;;26.60;96.60;;;;;;5014111;28;20484;-72
2023/08/21 09:47:49;;;;;;;8.73;5.15;;;26.70;95.20;;;;;;5015270;28;20025;-72
2023/08/21 09:50:15;;;;;;;6.07;4.45;;;26.90;95.10;;;;;;5015069;28;20053;-72
2023/08/21 09:52:43;;;;;;;7.03;4.78;;;27.00;94.50;;;;;;5015239;28;20052;-72
2023/08/21 09:55:10;;;;;;;6.60;4.90;;;27.20;93.60;;;;;;5015418;28;20080;-72
2023/08/21 09:57:36;;;;;;;7.78;4.72;;;27.30;93.70;;;;;;5015084;28;20034;-72
2023/08/21 10:00:15;;;;;;;7.40;4.70;;;27.50;94.30;;;;;;5015034;28;20029;-72
2023/08/21 10:02:45;;;;;;;8.05;4.85;;;27.70;94.20;;;;;;5015357;28;20049;-72
2023/08/21 10:05:13;;;;;;;7.00;4.63;;;27.80;93.30;;;;;;5015312;28;20373;-72
2023/08/21 10:07:40;;;;;;;8.18;5.50;;;28.00;93.00;;;;;;5014924;28;20026;-72
2023/08/21 10:10:07;;;;;;;5.70;4.72;;;28.10;92.40;;;;;;5015028;28;20432;-72
2023/08/21 10:12:33;;;;;;;9.55;5.22;;;28.20;92.20;;;;;;5015127;28;20030;-72
2023/08/21 10:14:58;;;;;;;7.13;5.28;;;28.20;91.70;;;;;;5013854;28;20030;-72
2023/08/21 10:17:24;;;;;;;7.10;5.13;;;28.30;92.30;;;;;;5015144;28;20025;-70
2023/08/21 10:19:53;;;;;;;7.68;4.78;;;28.40;92.50;;;;;;5014584;28;20032;-72
2023/08/21 10:22:44;;;;;;;9.05;5.07;;;28.50;92.10;;;;;;5014769;28;20025;-70
2023/08/21 10:25:30;;;;;;;8.80;5.05;;;28.60;91.40;;;;;;5014611;28;20033;-70
2023/08/21 10:28:03;;;;;;;6.00;4.50;;;28.80;91.40;;;;;;5014325;28;20097;-72
2023/08/21 10:30:29;;;;;;;5.88;4.65;;;28.90;90.30;;;;;;5014591;28;20034;-70
2023/08/21 10:32:57;;;;;;;6.63;5.10;;;29.10;89.40;;;;;;5014337;28;20030;-70
2023/08/21 10:35:34;;;;;;;6.78;4.68;;;29.30;90.60;;;;;;5014221;28;20080;-70
2023/08/21 10:38:18;;;;;;;7.63;5.40;;;29.40;88.70;;;;;;5014374;28;20499;-70
2023/08/21 10:41:07;;;;;;;6.28;4.50;;;29.50;90.40;;;;;;5014328;28;20080;-70
2023/08/21 10:43:39;;;;;;;8.05;5.07;;;29.60;88.90;;;;;;5014814;28;20037;-70
2023/08/21 10:46:06;;;;;;;6.75;4.53;;;29.70;87.10;;;;;;5014250;28;20156;-70
2023/08/21 10:48:31;;;;;;;6.45;4.55;;;29.70;88.90;;;;;;5014210;28;20112;-70
2023/08/21 10:51:01;;;;;;;6.35;5.05;;;29.90;89.60;;;;;;5013719;28;20069;-70
2023/08/21 10:53:27;;;;;;;6.65;4.88;;;30.00;90.30;;;;;;5014240;28;20100;-70
2023/08/21 10:55:54;;;;;;;8.63;5.40;;;30.10;89.60;;;;;;5014016;28;20572;-69
2023/08/21 10:58:20;;;;;;;6.28;4.97;;;30.30;89.10;;;;;;5014052;28;20026;-70
2023/08/21 11:00:46;;;;;;;7.65;4.65;;;30.40;87.30;;;;;;5013897;28;20113;-70
2023/08/21 11:03:11;;;;;;;9.88;4.85;;;30.40;86.60;;;;;;5013932;28;20026;-70
2023/08/21 11:05:37;;;;;;;7.82;5.00;;;30.50;87.00;;;;;;5013958;28;20495;-70
2023/08/21 11:08:03;;;;;;;6.18;4.40;;;30.50;86.60;;;;;;5012673;28;20451;-70
2023/08/21 11:10:31;;;;;;;7.05;4.80;;;30.60;86.50;;;;;;5013631;28;20072;-70
2023/08/21 11:13:02;;;;;;;7.32;4.45;;;30.70;85.20;;;;;;5014162;28;20440;-70
2023/08/21 11:15:29;;;;;;;8.13;4.63;;;30.80;84.00;;;;;;5014098;28;20384;-70
2023/08/21 11:18:02;;;;;;;6.45;4.93;;;30.90;82.90;;;;;;5012433;28;20022;-70
2023/08/21 11:20:35;;;;;;;8.65;4.50;;;31.00;83.70;;;;;;5013981;28;20029;-70
2023/08/21 11:23:07;;;;;;;5.78;4.45;;;31.10;82.80;;;;;;5014319;28;20033;-70
2023/08/21 11:25:33;;;;;;;5.82;4.50;;;31.20;82.80;;;;;;5013705;28;20028;-70
2023/08/21 11:28:02;;;;;;;7.10;4.30;;;31.30;81.40;;;;;;5013567;28;20022;-70
2023/08/21 11:30:27;;;;;;;6.05;3.92;;;31.40;79.70;;;;;;5013493;28;20366;-70
2023/08/21 11:33:05;;;;;;;;;;;31.50;78.20;;;;;;5013329;28;20091;-70
2023/08/21 11:35:31;;;;;;;6.60;4.20;;;31.60;77.40;;;;;;5012466;28;20215;-70
2023/08/21 11:37:57;;;;;;;;;;;31.70;80.90;;;;;;5013434;28;19959;-70
2023/08/21 11:40:22;;;;;;;;;;;31.80;79.70;;;;;;5013981;28;19921;-70
2023/08/21 11:42:51;;;;;;;;;;;31.90;78.30;;;;;;5013885;28;19905;-70
2023/08/21 11:45:20;;;;;;;;;;;32.00;76.80;;;;;;5014260;28;19906;-70
2023/08/21 11:47:45;;;;;;;;;;;32.10;75.80;;;;;;5012739;28;20310;-70
2023/08/21 11:50:13;;;;;;;;;;;32.10;76.00;;;;;;5013668;28;19917;-70
2023/08/21 11:52:38;;;;;;;;;;;32.30;75.00;;;;;;5013901;28;19906;-70
2023/08/21 11:55:07;;;;;;;;;;;32.40;73.90;;;;;;5013643;28;19912;-70
2023/08/21 11:57:33;;;;;;;;;;;32.50;73.10;;;;;;5013538;28;19920;-69
2023/08/21 11:59:58;;;;;;;;;;;32.50;73.80;;;;;;5012874;28;20014;-70
2023/08/21 12:02:25;;;;;;;;;;;32.70;74.30;;;;;;5013838;28;19952;-70
2023/08/21 12:04:54;;;;;;;;;;;32.80;73.70;;;;;;5016073;28;19945;-70
2023/08/21 12:07:20;;;;;;;;;;;32.90;73.40;;;;;;5017550;28;19905;-70
2023/08/21 12:09:49;;;;;;;;;;;33.00;73.50;;;;;;5017570;28;19909;-70
2023/08/21 12:12:14;;;;;;;;;;;33.10;72.50;;;;;;5016170;28;19906;-70
2023/08/21 12:14:40;;;;;;;;;;;33.00;72.30;;;;;;5017432;28;20383;-70
2023/08/21 12:17:06;;;;;;;;;;;33.10;70.90;;;;;;5017298;28;19917;-70
2023/08/21 12:19:31;;;;;;;;;;;33.20;69.40;;;;;;5017217;28;19948;-70
2023/08/21 12:21:58;;;;;;;;;;;33.30;69.50;;;;;;5018578;28;19917;-70
2023/08/21 12:24:24;;;;;;;;;;;33.40;69.10;;;;;;5018354;28;19932;-70
2023/08/21 12:26:49;;;;;;;;;;;33.40;67.40;;;;;;5017929;28;20372;-70
2023/08/21 12:29:15;;;;;;;;;;;33.50;66.10;;;;;;5018028;28;19906;-70
2023/08/21 12:31:40;;;;;;;;;;;33.50;65.50;;;;;;5017487;28;19971;-70
2023/08/21 12:34:06;;;;;;;;;;;33.60;66.30;;;;;;5017571;28;19910;-69
2023/08/21 12:36:34;;;;;;;;;;;33.60;59.10;;;;;;5017486;28;19928;-70
2023/08/21 12:38:59;;;;;;;;;;;33.60;60.10;;;;;;5017204;28;19909;-70
2023/08/21 12:41:25;;;;;;;;;;;33.70;59.30;;;;;;5017207;28;20368;-70
2023/08/21 12:43:51;;;;;;;;;;;33.70;60.40;;;;;;5017242;28;19936;-70
2023/08/21 12:46:16;;;;;;;;;;;33.80;60.70;;;;;;5015763;28;19909;-70
2023/08/21 12:48:42;;;;;;;;;;;33.90;59.30;;;;;;5016850;28;19940;-70
2023/08/21 12:51:07;;;;;;;;;;;34.00;60.80;;;;;;5016713;28;19913;-70